sensor_id;sensor_type;location;lat;lon;timestamp;pressure;altitude;pressure_sealevel;temperature;humidity
84924;BME280;75286;52.218;5.180;2024-01-15T00:00:16;100340.84;;;1.63;99.33
84924;BME280;75286;52.218;5.180;2024-01-15T00:02:42;100350.06;;;1.74;98.32
84924;BME280;75286;52.218;5.180;2024-01-15T00:05:07;100371.91;;;1.86;98.72
84924;BME280;75286;52.218;5.180;2024-01-15T00:07:33;100340.97;;;1.71;98.57
84924;BME280;75286;52.218;5.180;2024-01-15T00:09:58;100344.03;;;1.75;98.92
84924;BME280;75286;52.218;5.180;2024-01-15T00:12:23;100356.22;;;1.81;98.10
84924;BME280;75286;52.218;5.180;2024-01-15T00:14:49;100348.31;;;1.74;97.60
84924;BME280;75286;52.218;5.180;2024-01-15T00:17:14;100345.25;;;1.71;97.00
84924;BME280;75286;52.218;5.180;2024-01-15T00:19:39;100330.38;;;1.66;97.88
84924;BME280;75286;52.218;5.180;2024-01-15T00:22:04;100349.94;;;1.75;97.83
84924;BME280;75286;52.218;5.180;2024-01-15T00:24:30;100317.63;;;1.56;97.07
84924;BME280;75286;52.218;5.180;2024-01-15T00:26:55;100320.19;;;1.56;97.84
84924;BME280;75286;52.218;5.180;2024-01-15T00:29:21;100336.81;;;1.70;97.20
84924;BME280;75286;52.218;5.180;2024-01-15T00:31:46;100298.34;;;1.44;97.65
84924;BME280;75286;52.218;5.180;2024-01-15T00:34:12;100331.06;;;1.58;98.14
84924;BME280;75286;52.218;5.180;2024-01-15T00:36:37;100333.06;;;1.64;97.33
84924;BME280;75286;52.218;5.180;2024-01-15T00:39:02;100336.84;;;1.60;97.65
84924;BME280;75286;52.218;5.180;2024-01-15T00:41:30;100335.75;;;1.63;97.82
84924;BME280;75286;52.218;5.180;2024-01-15T00:43:56;100304.41;;;1.43;97.53
84924;BME280;75286;52.218;5.180;2024-01-15T00:46:21;100325.69;;;1.61;97.73
84924;BME280;75286;52.218;5.180;2024-01-15T00:48:47;100311.63;;;1.48;97.80
84924;BME280;75286;52.218;5.180;2024-01-15T00:51:12;100300.13;;;1.44;97.16
84924;BME280;75286;52.218;5.180;2024-01-15T00:53:38;100313.25;;;1.49;97.52
84924;BME280;75286;52.218;5.180;2024-01-15T00:56:03;100248.41;;;1.14;96.52
84924;BME280;75286;52.218;5.180;2024-01-15T00:58:29;100308.81;;;1.51;97.34
84924;BME280;75286;52.218;5.180;2024-01-15T01:00:54;100317.81;;;1.55;96.89
84924;BME280;75286;52.218;5.180;2024-01-15T01:03:20;100315.91;;;1.57;97.58
84924;BME280;75286;52.218;5.180;2024-01-15T01:05:45;100266.72;;;1.28;97.65
84924;BME280;75286;52.218;5.180;2024-01-15T01:08:11;100304.81;;;1.48;97.30
84924;BME280;75286;52.218;5.180;2024-01-15T01:10:37;100276.00;;;1.29;97.78
84924;BME280;75286;52.218;5.180;2024-01-15T01:13:02;100294.47;;;1.40;97.13
84924;BME280;75286;52.218;5.180;2024-01-15T01:15:27;100304.94;;;1.47;97.26
84924;BME280;75286;52.218;5.180;2024-01-15T01:17:53;100308.41;;;1.55;97.59
84924;BME280;75286;52.218;5.180;2024-01-15T01:20:18;100308.69;;;1.52;97.73
84924;BME280;75286;52.218;5.180;2024-01-15T01:22:43;100285.22;;;1.39;97.48
84924;BME280;75286;52.218;5.180;2024-01-15T01:25:09;100308.00;;;1.50;97.43
84924;BME280;75286;52.218;5.180;2024-01-15T01:27:35;100308.25;;;1.57;97.69
84924;BME280;75286;52.218;5.180;2024-01-15T01:30:00;100272.91;;;1.35;97.65
84924;BME280;75286;52.218;5.180;2024-01-15T01:32:26;100261.25;;;1.32;97.76
84924;BME280;75286;52.218;5.180;2024-01-15T01:34:51;100308.81;;;1.60;97.52
84924;BME280;75286;52.218;5.180;2024-01-15T01:37:16;100303.41;;;1.63;97.88
84924;BME280;75286;52.218;5.180;2024-01-15T01:39:44;100284.94;;;1.52;97.67
84924;BME280;75286;52.218;5.180;2024-01-15T01:42:09;100303.16;;;1.67;98.41
84924;BME280;75286;52.218;5.180;2024-01-15T01:44:35;100296.28;;;1.67;97.76
84924;BME280;75286;52.218;5.180;2024-01-15T01:47:00;100305.16;;;1.73;98.50
84924;BME280;75286;52.218;5.180;2024-01-15T01:49:26;100289.44;;;1.67;98.02
84924;BME280;75286;52.218;5.180;2024-01-15T01:51:53;100285.97;;;1.69;98.21
84924;BME280;75286;52.218;5.180;2024-01-15T01:54:19;100268.41;;;1.56;97.95
84924;BME280;75286;52.218;5.180;2024-01-15T01:56:47;100280.88;;;1.69;98.30
84924;BME280;75286;52.218;5.180;2024-01-15T01:59:13;100312.59;;;1.93;97.88
84924;BME280;75286;52.218;5.180;2024-01-15T02:01:41;100279.53;;;1.64;98.29
84924;BME280;75286;52.218;5.180;2024-01-15T02:04:07;100328.16;;;2.00;98.82
84924;BME280;75286;52.218;5.180;2024-01-15T02:06:33;100312.22;;;1.88;97.87
84924;BME280;75286;52.218;5.180;2024-01-15T02:09:00;100282.88;;;1.75;99.37
84924;BME280;75286;52.218;5.180;2024-01-15T02:11:26;100306.97;;;1.90;99.71
84924;BME280;75286;52.218;5.180;2024-01-15T02:13:51;100281.81;;;1.67;99.33
84924;BME280;75286;52.218;5.180;2024-01-15T02:16:16;100286.63;;;1.71;99.46
84924;BME280;75286;52.218;5.180;2024-01-15T02:18:43;100303.34;;;1.92;99.80
84924;BME280;75286;52.218;5.180;2024-01-15T02:21:09;100278.19;;;1.70;99.64
84924;BME280;75286;52.218;5.180;2024-01-15T02:23:35;100306.88;;;1.82;100.00
84924;BME280;75286;52.218;5.180;2024-01-15T02:26:01;100303.94;;;1.77;100.00
84924;BME280;75286;52.218;5.180;2024-01-15T02:28:26;100277.13;;;1.63;100.00
84924;BME280;75286;52.218;5.180;2024-01-15T02:30:51;100264.56;;;1.52;100.00
84924;BME280;75286;52.218;5.180;2024-01-15T02:33:17;100279.16;;;1.59;100.00
84924;BME280;75286;52.218;5.180;2024-01-15T02:35:42;100296.53;;;1.74;100.00
84924;BME280;75286;52.218;5.180;2024-01-15T02:38:07;100303.38;;;1.73;100.00
84924;BME280;75286;52.218;5.180;2024-01-15T02:40:34;100295.59;;;1.75;100.00
84924;BME280;75286;52.218;5.180;2024-01-15T02:43:00;100283.16;;;1.72;100.00
84924;BME280;75286;52.218;5.180;2024-01-15T02:45:26;100236.81;;;1.39;100.00
84924;BME280;75286;52.218;5.180;2024-01-15T02:47:51;100268.25;;;1.67;100.00
84924;BME280;75286;52.218;5.180;2024-01-15T02:50:16;100232.28;;;1.43;100.00
84924;BME280;75286;52.218;5.180;2024-01-15T02:52:42;100293.19;;;1.83;100.00
84924;BME280;75286;52.218;5.180;2024-01-15T02:55:08;100291.28;;;1.85;100.00
84924;BME280;75286;52.218;5.180;2024-01-15T02:57:33;100290.34;;;1.86;100.00
84924;BME280;75286;52.218;5.180;2024-01-15T02:59:58;100289.81;;;1.82;100.00
84924;BME280;75286;52.218;5.180;2024-01-15T03:02:24;100267.88;;;1.72;100.00
84924;BME280;75286;52.218;5.180;2024-01-15T03:04:49;100265.81;;;1.75;100.00
84924;BME280;75286;52.218;5.180;2024-01-15T03:07:15;100259.78;;;1.76;100.00
84924;BME280;75286;52.218;5.180;2024-01-15T03:09:40;100277.47;;;1.87;100.00
84924;BME280;75286;52.218;5.180;2024-01-15T03:12:06;100217.50;;;1.46;100.00
84924;BME280;75286;52.218;5.180;2024-01-15T03:14:31;100260.84;;;1.74;100.00
84924;BME280;75286;52.218;5.180;2024-01-15T03:16:57;100292.88;;;1.86;100.00
84924;BME280;75286;52.218;5.180;2024-01-15T03:19:22;100276.78;;;1.85;100.00
84924;BME280;75286;52.218;5.180;2024-01-15T03:21:47;100284.59;;;1.84;100.00
84924;BME280;75286;52.218;5.180;2024-01-15T03:24:13;100279.38;;;1.76;100.00
84924;BME280;75286;52.218;5.180;2024-01-15T03:26:38;100305.94;;;1.83;100.00
84924;BME280;75286;52.218;5.180;2024-01-15T03:29:04;100306.19;;;1.80;100.00
84924;BME280;75286;52.218;5.180;2024-01-15T03:31:29;100308.75;;;1.80;100.00
84924;BME280;75286;52.218;5.180;2024-01-15T03:33:54;100282.59;;;1.78;100.00
84924;BME280;75286;52.218;5.180;2024-01-15T03:36:20;100272.28;;;1.70;100.00
84924;BME280;75286;52.218;5.180;2024-01-15T03:38:45;100273.44;;;1.85;100.00
84924;BME280;75286;52.218;5.180;2024-01-15T03:41:11;100225.53;;;1.51;100.00
84924;BME280;75286;52.218;5.180;2024-01-15T03:43:36;100250.41;;;1.67;100.00
84924;BME280;75286;52.218;5.180;2024-01-15T03:46:01;100260.47;;;1.78;100.00
84924;BME280;75286;52.218;5.180;2024-01-15T03:48:27;100258.84;;;1.77;100.00
84924;BME280;75286;52.218;5.180;2024-01-15T03:50:53;100222.03;;;1.52;100.00
84924;BME280;75286;52.218;5.180;2024-01-15T03:53:18;100235.03;;;1.59;100.00
84924;BME280;75286;52.218;5.180;2024-01-15T03:55:44;100259.41;;;1.71;100.00
84924;BME280;75286;52.218;5.180;2024-01-15T03:58:09;100237.28;;;1.62;100.00
84924;BME280;75286;52.218;5.180;2024-01-15T04:00:34;100243.75;;;1.66;100.00
84924;BME280;75286;52.218;5.180;2024-01-15T04:03:00;100224.34;;;1.46;100.00
84924;BME280;75286;52.218;5.180;2024-01-15T04:05:25;100240.13;;;1.59;100.00
84924;BME280;75286;52.218;5.180;2024-01-15T04:07:50;100248.72;;;1.58;100.00
84924;BME280;75286;52.218;5.180;2024-01-15T04:10:16;100241.19;;;1.56;100.00
84924;BME280;75286;52.218;5.180;2024-01-15T04:12:41;100244.72;;;1.55;100.00
84924;BME280;75286;52.218;5.180;2024-01-15T04:15:07;100228.22;;;1.50;100.00
84924;BME280;75286;52.218;5.180;2024-01-15T04:17:32;100216.31;;;1.41;100.00
84924;BME280;75286;52.218;5.180;2024-01-15T04:19:57;100230.75;;;1.50;100.00
84924;BME280;75286;52.218;5.180;2024-01-15T04:22:23;100227.97;;;1.43;100.00
84924;BME280;75286;52.218;5.180;2024-01-15T04:24:48;100202.13;;;1.29;100.00
84924;BME280;75286;52.218;5.180;2024-01-15T04:27:14;100224.47;;;1.44;100.00
84924;BME280;75286;52.218;5.180;2024-01-15T04:29:39;100180.97;;;1.18;100.00
84924;BME280;75286;52.218;5.180;2024-01-15T04:32:05;100207.06;;;1.40;100.00
84924;BME280;75286;52.218;5.180;2024-01-15T04:34:30;100225.25;;;1.54;100.00
84924;BME280;75286;52.218;5.180;2024-01-15T04:36:55;100222.97;;;1.51;100.00
84924;BME280;75286;52.218;5.180;2024-01-15T04:39:21;100202.13;;;1.38;100.00
84924;BME280;75286;52.218;5.180;2024-01-15T04:41:47;100240.66;;;1.62;100.00
84924;BME280;75286;52.218;5.180;2024-01-15T04:44:12;100234.22;;;1.58;100.00
84924;BME280;75286;52.218;5.180;2024-01-15T04:46:38;100199.28;;;1.41;100.00
84924;BME280;75286;52.218;5.180;2024-01-15T04:49:03;100240.00;;;1.60;100.00
84924;BME280;75286;52.218;5.180;2024-01-15T04:51:28;100184.56;;;1.35;100.00
84924;BME280;75286;52.218;5.180;2024-01-15T04:53:54;100180.66;;;1.41;100.00
84924;BME280;75286;52.218;5.180;2024-01-15T04:56:19;100220.00;;;1.65;100.00
84924;BME280;75286;52.218;5.180;2024-01-15T04:58:44;100205.66;;;1.64;100.00
84924;BME280;75286;52.218;5.180;2024-01-15T05:01:10;100149.69;;;1.36;100.00
84924;BME280;75286;52.218;5.180;2024-01-15T05:03:36;100207.63;;;1.71;100.00
84924;BME280;75286;52.218;5.180;2024-01-15T05:06:01;100202.28;;;1.64;100.00
84924;BME280;75286;52.218;5.180;2024-01-15T05:08:26;100213.53;;;1.71;100.00
84924;BME280;75286;52.218;5.180;2024-01-15T05:10:52;100189.69;;;1.62;100.00
84924;BME280;75286;52.218;5.180;2024-01-15T05:13:17;100192.22;;;1.62;100.00
84924;BME280;75286;52.218;5.180;2024-01-15T05:15:43;100174.00;;;1.57;100.00
84924;BME280;75286;52.218;5.180;2024-01-15T05:18:08;100199.19;;;1.70;100.00
84924;BME280;75286;52.218;5.180;2024-01-15T05:20:33;100157.97;;;1.47;100.00
84924;BME280;75286;52.218;5.180;2024-01-15T05:22:59;100190.34;;;1.64;100.00
84924;BME280;75286;52.218;5.180;2024-01-15T05:25:24;100208.31;;;1.73;100.00
84924;BME280;75286;52.218;5.180;2024-01-15T05:27:50;100204.78;;;1.74;100.00
84924;BME280;75286;52.218;5.180;2024-01-15T05:30:15;100198.00;;;1.64;100.00
84924;BME280;75286;52.218;5.180;2024-01-15T05:32:41;100205.88;;;1.71;100.00
84924;BME280;75286;52.218;5.180;2024-01-15T05:35:07;100190.47;;;1.63;100.00
84924;BME280;75286;52.218;5.180;2024-01-15T05:37:32;100198.38;;;1.70;100.00
84924;BME280;75286;52.218;5.180;2024-01-15T05:39:58;100197.88;;;1.66;100.00
84924;BME280;75286;52.218;5.180;2024-01-15T05:42:23;100202.53;;;1.71;100.00
84924;BME280;75286;52.218;5.180;2024-01-15T05:44:49;100201.22;;;1.67;100.00
84924;BME280;75286;52.218;5.180;2024-01-15T05:47:14;100218.34;;;1.74;100.00
84924;BME280;75286;52.218;5.180;2024-01-15T05:49:40;100211.00;;;1.61;100.00
84924;BME280;75286;52.218;5.180;2024-01-15T05:52:06;100241.28;;;1.74;100.00
84924;BME280;75286;52.218;5.180;2024-01-15T05:54:31;100223.59;;;1.73;100.00
84924;BME280;75286;52.218;5.180;2024-01-15T05:56:57;100203.53;;;1.60;100.00
84924;BME280;75286;52.218;5.180;2024-01-15T05:59:22;100191.91;;;1.48;100.00
84924;BME280;75286;52.218;5.180;2024-01-15T06:01:47;100192.16;;;1.54;100.00
84924;BME280;75286;52.218;5.180;2024-01-15T06:04:13;100196.69;;;1.51;100.00
84924;BME280;75286;52.218;5.180;2024-01-15T06:06:38;100177.97;;;1.42;100.00
84924;BME280;75286;52.218;5.180;2024-01-15T06:09:04;100179.78;;;1.50;100.00
84924;BME280;75286;52.218;5.180;2024-01-15T06:11:32;100168.03;;;1.39;100.00
84924;BME280;75286;52.218;5.180;2024-01-15T06:13:57;100188.25;;;1.50;100.00
84924;BME280;75286;52.218;5.180;2024-01-15T06:16:24;100177.03;;;1.43;100.00
84924;BME280;75286;52.218;5.180;2024-01-15T06:18:49;100140.50;;;1.15;100.00
84924;BME280;75286;52.218;5.180;2024-01-15T06:21:15;100177.97;;;1.42;100.00
84924;BME280;75286;52.218;5.180;2024-01-15T06:23:41;100186.94;;;1.46;100.00
84924;BME280;75286;52.218;5.180;2024-01-15T06:26:06;100172.19;;;1.40;100.00
84924;BME280;75286;52.218;5.180;2024-01-15T06:28:31;100183.72;;;1.44;100.00
84924;BME280;75286;52.218;5.180;2024-01-15T06:30:57;100161.63;;;1.35;100.00
84924;BME280;75286;52.218;5.180;2024-01-15T06:33:23;100173.94;;;1.40;100.00
84924;BME280;75286;52.218;5.180;2024-01-15T06:35:49;100187.75;;;1.47;100.00
84924;BME280;75286;52.218;5.180;2024-01-15T06:38:15;100168.75;;;1.32;100.00
84924;BME280;75286;52.218;5.180;2024-01-15T06:40:40;100159.38;;;1.22;100.00
84924;BME280;75286;52.218;5.180;2024-01-15T06:43:11;100149.09;;;1.14;100.00
84924;BME280;75286;52.218;5.180;2024-01-15T06:45:36;100166.38;;;1.20;100.00
84924;BME280;75286;52.218;5.180;2024-01-15T06:48:01;100176.78;;;1.37;100.00
84924;BME280;75286;52.218;5.180;2024-01-15T06:50:27;100140.50;;;1.15;100.00
84924;BME280;75286;52.218;5.180;2024-01-15T06:52:52;100166.59;;;1.27;100.00
84924;BME280;75286;52.218;5.180;2024-01-15T06:55:18;100145.22;;;1.10;100.00
84924;BME280;75286;52.218;5.180;2024-01-15T06:57:43;100207.22;;;1.38;100.00
84924;BME280;75286;52.218;5.180;2024-01-15T07:00:09;100203.88;;;1.28;100.00
84924;BME280;75286;52.218;5.180;2024-01-15T07:02:35;100225.31;;;1.35;100.00
84924;BME280;75286;52.218;5.180;2024-01-15T07:05:01;100191.84;;;1.11;100.00
84924;BME280;75286;52.218;5.180;2024-01-15T07:07:26;100195.47;;;1.18;100.00
84924;BME280;75286;52.218;5.180;2024-01-15T07:09:54;100198.25;;;1.24;100.00
84924;BME280;75286;52.218;5.180;2024-01-15T07:12:19;100205.34;;;1.31;100.00
84924;BME280;75286;52.218;5.180;2024-01-15T07:14:45;100119.44;;;0.76;100.00
84924;BME280;75286;52.218;5.180;2024-01-15T07:17:10;100146.06;;;0.92;100.00
84924;BME280;75286;52.218;5.180;2024-01-15T07:19:35;100191.28;;;1.17;100.00
84924;BME280;75286;52.218;5.180;2024-01-15T07:22:02;100205.22;;;1.32;100.00
84924;BME280;75286;52.218;5.180;2024-01-15T07:24:27;100189.94;;;1.32;100.00
84924;BME280;75286;52.218;5.180;2024-01-15T07:26:52;100189.00;;;1.23;100.00
84924;BME280;75286;52.218;5.180;2024-01-15T07:29:18;100191.53;;;1.33;100.00
84924;BME280;75286;52.218;5.180;2024-01-15T07:31:50;100194.34;;;1.30;100.00
84924;BME280;75286;52.218;5.180;2024-01-15T07:34:16;100206.53;;;1.36;100.00
84924;BME280;75286;52.218;5.180;2024-01-15T07:36:42;100205.06;;;1.34;100.00
84924;BME280;75286;52.218;5.180;2024-01-15T07:39:07;100109.78;;;0.80;100.00
84924;BME280;75286;52.218;5.180;2024-01-15T07:41:32;100188.50;;;1.20;100.00
84924;BME280;75286;52.218;5.180;2024-01-15T07:43:58;100197.28;;;1.35;100.00
84924;BME280;75286;52.218;5.180;2024-01-15T07:46:23;100193.50;;;1.39;100.00
84924;BME280;75286;52.218;5.180;2024-01-15T07:48:50;100200.09;;;1.42;100.00
84924;BME280;75286;52.218;5.180;2024-01-15T07:51:21;100169.81;;;1.29;100.00
84924;BME280;75286;52.218;5.180;2024-01-15T07:53:47;100149.22;;;1.13;100.00
84924;BME280;75286;52.218;5.180;2024-01-15T07:56:12;100198.22;;;1.44;100.00
84924;BME280;75286;52.218;5.180;2024-01-15T07:58:38;100167.56;;;1.26;100.00
84924;BME280;75286;52.218;5.180;2024-01-15T08:01:03;100197.41;;;1.43;100.00
84924;BME280;75286;52.218;5.180;2024-01-15T08:03:28;100157.94;;;1.20;100.00
84924;BME280;75286;52.218;5.180;2024-01-15T08:05:54;100194.88;;;1.43;100.00
84924;BME280;75286;52.218;5.180;2024-01-15T08:08:20;100180.41;;;1.34;100.00
84924;BME280;75286;52.218;5.180;2024-01-15T08:10:47;100193.38;;;1.41;100.00
84924;BME280;75286;52.218;5.180;2024-01-15T08:13:12;100212.97;;;1.40;100.00
84924;BME280;75286;52.218;5.180;2024-01-15T08:15:37;100203.06;;;1.28;100.00
84924;BME280;75286;52.218;5.180;2024-01-15T08:18:03;100222.13;;;1.23;100.00
84924;BME280;75286;52.218;5.180;2024-01-15T08:20:28;100213.94;;;1.10;100.00
84924;BME280;75286;52.218;5.180;2024-01-15T08:22:53;100222.63;;;1.27;100.00
84924;BME280;75286;52.218;5.180;2024-01-15T08:25:19;100206.19;;;1.12;100.00
84924;BME280;75286;52.218;5.180;2024-01-15T08:27:44;100211.94;;;1.23;100.00
84924;BME280;75286;52.218;5.180;2024-01-15T08:30:10;100211.38;;;1.30;100.00
84924;BME280;75286;52.218;5.180;2024-01-15T08:32:36;100202.25;;;1.27;100.00
84924;BME280;75286;52.218;5.180;2024-01-15T08:35:06;100197.72;;;1.31;100.00
84924;BME280;75286;52.218;5.180;2024-01-15T08:37:31;100189.41;;;1.29;100.00
84924;BME280;75286;52.218;5.180;2024-01-15T08:39:57;100193.81;;;1.36;100.00
84924;BME280;75286;52.218;5.180;2024-01-15T08:42:22;100177.34;;;1.21;100.00
84924;BME280;75286;52.218;5.180;2024-01-15T08:44:47;100177.47;;;1.29;100.00
84924;BME280;75286;52.218;5.180;2024-01-15T08:47:12;100204.38;;;1.41;100.00
84924;BME280;75286;52.218;5.180;2024-01-15T08:49:38;100192.88;;;1.37;100.00
84924;BME280;75286;52.218;5.180;2024-01-15T08:52:04;100211.59;;;1.46;100.00
84924;BME280;75286;52.218;5.180;2024-01-15T08:54:30;100149.91;;;1.05;100.00
84924;BME280;75286;52.218;5.180;2024-01-15T08:56:55;100204.00;;;1.36;100.00
84924;BME280;75286;52.218;5.180;2024-01-15T08:59:20;100214.81;;;1.48;100.00
84924;BME280;75286;52.218;5.180;2024-01-15T09:01:50;100196.75;;;1.41;100.00
84924;BME280;75286;52.218;5.180;2024-01-15T09:04:15;100198.22;;;1.34;100.00
84924;BME280;75286;52.218;5.180;2024-01-15T09:06:45;100195.97;;;1.31;100.00
84924;BME280;75286;52.218;5.180;2024-01-15T09:09:10;100204.09;;;1.44;100.00
84924;BME280;75286;52.218;5.180;2024-01-15T09:11:36;100197.41;;;1.43;100.00
84924;BME280;75286;52.218;5.180;2024-01-15T09:14:01;100188.97;;;1.33;100.00
84924;BME280;75286;52.218;5.180;2024-01-15T09:16:27;100196.47;;;1.35;100.00
84924;BME280;75286;52.218;5.180;2024-01-15T09:18:52;100177.47;;;1.29;100.00
84924;BME280;75286;52.218;5.180;2024-01-15T09:21:17;100187.47;;;1.40;100.00
84924;BME280;75286;52.218;5.180;2024-01-15T09:23:43;100205.94;;;1.52;100.00
84924;BME280;75286;52.218;5.180;2024-01-15T09:26:08;100146.09;;;1.29;100.00
84924;BME280;75286;52.218;5.180;2024-01-15T09:28:34;100214.97;;;1.74;100.00
84924;BME280;75286;52.218;5.180;2024-01-15T09:30:59;100206.03;;;1.70;100.00
84924;BME280;75286;52.218;5.180;2024-01-15T09:33:25;100184.19;;;1.57;100.00
84924;BME280;75286;52.218;5.180;2024-01-15T09:35:50;100196.13;;;1.67;100.00
84924;BME280;75286;52.218;5.180;2024-01-15T09:38:15;100181.56;;;1.49;100.00
84924;BME280;75286;52.218;5.180;2024-01-15T09:40:43;100175.81;;;1.47;100.00
84924;BME280;75286;52.218;5.180;2024-01-15T09:43:11;100175.94;;;1.46;100.00
84924;BME280;75286;52.218;5.180;2024-01-15T09:45:37;100204.47;;;1.59;100.00
84924;BME280;75286;52.218;5.180;2024-01-15T09:48:02;100189.06;;;1.51;100.00
84924;BME280;75286;52.218;5.180;2024-01-15T09:50:28;100181.56;;;1.49;100.00
84924;BME280;75286;52.218;5.180;2024-01-15T09:52:54;100192.78;;;1.66;100.00
84924;BME280;75286;52.218;5.180;2024-01-15T09:55:19;100194.63;;;2.01;100.00
84924;BME280;75286;52.218;5.180;2024-01-15T09:57:45;100212.63;;;2.17;100.00
84924;BME280;75286;52.218;5.180;2024-01-15T10:00:11;100217.75;;;2.17;100.00
84924;BME280;75286;52.218;5.180;2024-01-15T10:02:37;100094.28;;;1.47;100.00
84924;BME280;75286;52.218;5.180;2024-01-15T10:05:03;100199.69;;;2.28;100.00
84924;BME280;75286;52.218;5.180;2024-01-15T10:07:29;100218.16;;;2.58;100.00
84924;BME280;75286;52.218;5.180;2024-01-15T10:09:54;100203.19;;;2.45;100.00
84924;BME280;75286;52.218;5.180;2024-01-15T10:12:22;100213.66;;;2.42;100.00
84924;BME280;75286;52.218;5.180;2024-01-15T10:14:48;100241.84;;;2.50;99.28
84924;BME280;75286;52.218;5.180;2024-01-15T10:17:14;100243.50;;;2.41;99.85
84924;BME280;75286;52.218;5.180;2024-01-15T10:19:40;100243.72;;;2.30;99.41
84924;BME280;75286;52.218;5.180;2024-01-15T10:22:07;100238.00;;;2.19;99.95
84924;BME280;75286;52.218;5.180;2024-01-15T10:24:37;100189.31;;;1.85;100.00
84924;BME280;75286;52.218;5.180;2024-01-15T10:27:06;100235.72;;;2.16;100.00
84924;BME280;75286;52.218;5.180;2024-01-15T10:29:32;100216.19;;;2.06;100.00
84924;BME280;75286;52.218;5.180;2024-01-15T10:31:57;100156.00;;;2.14;100.00
84924;BME280;75286;52.218;5.180;2024-01-15T10:34:24;100197.44;;;2.61;99.68
84924;BME280;75286;52.218;5.180;2024-01-15T10:36:50;100231.53;;;2.77;98.56
84924;BME280;75286;52.218;5.180;2024-01-15T10:39:21;100234.84;;;2.70;98.11
84924;BME280;75286;52.218;5.180;2024-01-15T10:41:46;100229.88;;;2.51;99.06
84924;BME280;75286;52.218;5.180;2024-01-15T10:44:12;100222.66;;;2.46;98.68
84924;BME280;75286;52.218;5.180;2024-01-15T10:46:38;100197.13;;;2.28;99.28
84924;BME280;75286;52.218;5.180;2024-01-15T10:49:04;100243.94;;;2.55;99.29
84924;BME280;75286;52.218;5.180;2024-01-15T10:51:30;100242.50;;;2.52;99.43
84924;BME280;75286;52.218;5.180;2024-01-15T10:53:56;100247.75;;;2.51;99.32
84924;BME280;75286;52.218;5.180;2024-01-15T10:56:22;100234.59;;;2.28;98.75
84924;BME280;75286;52.218;5.180;2024-01-15T10:58:49;100256.75;;;2.27;98.38
84924;BME280;75286;52.218;5.180;2024-01-15T11:01:15;100245.69;;;2.09;98.81
84924;BME280;75286;52.218;5.180;2024-01-15T11:03:42;100260.72;;;2.12;98.57
84924;BME280;75286;52.218;5.180;2024-01-15T11:06:16;100249.28;;;1.89;99.56
84924;BME280;75286;52.218;5.180;2024-01-15T11:08:43;100244.75;;;1.73;99.29
84924;BME280;75286;52.218;5.180;2024-01-15T11:11:08;100227.88;;;1.72;99.49
84924;BME280;75286;52.218;5.180;2024-01-15T11:16:04;100246.19;;;1.85;99.68
84924;BME280;75286;52.218;5.180;2024-01-15T11:18:38;100260.63;;;2.04;100.00
84924;BME280;75286;52.218;5.180;2024-01-15T11:23:45;100268.88;;;2.16;99.68
84924;BME280;75286;52.218;5.180;2024-01-15T11:26:38;100246.63;;;2.08;99.87
84924;BME280;75286;52.218;5.180;2024-01-15T11:34:20;100267.28;;;2.15;99.86
84924;BME280;75286;52.218;5.180;2024-01-15T11:41:52;100248.97;;;2.01;99.72
84924;BME280;75286;52.218;5.180;2024-01-15T11:44:19;100260.72;;;2.12;99.53
84924;BME280;75286;52.218;5.180;2024-01-15T11:47:03;100199.44;;;1.67;99.38
84924;BME280;75286;52.218;5.180;2024-01-15T11:52:01;100260.88;;;2.56;100.00
84924;BME280;75286;52.218;5.180;2024-01-15T11:54:31;100262.41;;;2.66;98.78
84924;BME280;75286;52.218;5.180;2024-01-15T11:57:00;100275.63;;;2.97;98.52
84924;BME280;75286;52.218;5.180;2024-01-15T11:59:29;100280.81;;;3.05;97.95
84924;BME280;75286;52.218;5.180;2024-01-15T12:01:54;100268.97;;;3.04;97.40
84924;BME280;75286;52.218;5.180;2024-01-15T12:04:22;100284.28;;;3.22;97.09
84924;BME280;75286;52.218;5.180;2024-01-15T12:06:47;100268.25;;;3.38;96.97
84924;BME280;75286;52.218;5.180;2024-01-15T12:09:12;100248.69;;;3.80;96.18
84924;BME280;75286;52.218;5.180;2024-01-15T12:11:42;100274.94;;;4.24;93.40
84924;BME280;75286;52.218;5.180;2024-01-15T12:14:11;100269.03;;;4.24;92.48
84924;BME280;75286;52.218;5.180;2024-01-15T12:16:37;100281.50;;;4.27;93.20
84924;BME280;75286;52.218;5.180;2024-01-15T12:19:03;100245.91;;;3.99;93.34
84924;BME280;75286;52.218;5.180;2024-01-15T12:21:28;100277.53;;;3.98;93.34
84924;BME280;75286;52.218;5.180;2024-01-15T12:23:55;100243.31;;;3.31;92.35
84924;BME280;75286;52.218;5.180;2024-01-15T12:26:21;100332.38;;;3.44;92.89
84924;BME280;75286;52.218;5.180;2024-01-15T12:28:46;100309.84;;;3.04;92.88
84924;BME280;75286;52.218;5.180;2024-01-15T12:31:12;100297.66;;;2.80;94.35
84924;BME280;75286;52.218;5.180;2024-01-15T12:33:38;100303.31;;;2.57;94.78
84924;BME280;75286;52.218;5.180;2024-01-15T12:36:04;100315.47;;;2.45;94.62
84924;BME280;75286;52.218;5.180;2024-01-15T12:38:29;100321.06;;;2.21;95.51
84924;BME280;75286;52.218;5.180;2024-01-15T12:40:55;100294.69;;;2.13;96.98
84924;BME280;75286;52.218;5.180;2024-01-15T12:43:20;100266.56;;;1.95;97.34
84924;BME280;75286;52.218;5.180;2024-01-15T12:45:46;100283.06;;;2.00;97.23
84924;BME280;75286;52.218;5.180;2024-01-15T12:48:11;100298.19;;;2.02;97.45
84924;BME280;75286;52.218;5.180;2024-01-15T12:50:38;100283.22;;;1.89;98.08
84924;BME280;75286;52.218;5.180;2024-01-15T12:53:04;100313.28;;;1.95;98.35
84924;BME280;75286;52.218;5.180;2024-01-15T12:55:29;100318.22;;;1.97;98.66
84924;BME280;75286;52.218;5.180;2024-01-15T12:57:54;100332.69;;;1.96;98.27
84924;BME280;75286;52.218;5.180;2024-01-15T13:00:20;100320.63;;;1.98;98.06
84924;BME280;75286;52.218;5.180;2024-01-15T13:02:45;100293.19;;;1.83;98.14